Time;durP1;ratioP1;P1;durP2;ratioP2;P2;SDS_P1;SDS_P2;PMS_P1;PMS_P2;Temp;Humidity;BMP_temperature;BMP_pressure;BME280_temperature;BME280_humidity;BME280_pressure;Samples;Min_cycle;Max_cycle;Signal;HPM_P1;HPM_P2
2023/01/31 00:00:39;;;;;;;;;;;3.90;99.90;;;;;;5073940;28;19912;-69
2023/01/31 00:03:05;;;;;;;;;;;3.70;99.90;;;;;;5073871;28;19915;-69
2023/01/31 00:05:30;;;;;;;;;;;3.70;99.90;;;;;;5074306;28;19916;-69
2023/01/31 00:07:55;;;;;;;;;;;3.70;99.90;;;;;;5072785;28;19908;-68
2023/01/31 00:10:21;;;;;;;;;;;3.60;99.90;;;;;;5073685;28;19943;-69
2023/01/31 00:12:46;;;;;;;;;;;3.60;99.90;;;;;;5072341;28;20422;-69
2023/01/31 00:15:15;;;;;;;;;;;3.60;99.90;;;;;;5073627;28;20004;-69
2023/01/31 00:17:40;;;;;;;;;;;3.70;99.90;;;;;;5081764;28;20285;-70
2023/01/31 00:20:07;;;;;;;;;;;3.70;99.90;;;;;;5076860;28;19939;-69
2023/01/31 00:22:32;;;;;;;;;;;3.70;99.90;;;;;;5076059;28;20003;-70
2023/01/31 00:24:58;;;;;;;;;;;3.70;99.90;;;;;;5072814;28;20021;-69
2023/01/31 00:27:23;;;;;;;;;;;3.60;99.90;;;;;;5072677;28;19912;-69
2023/01/31 00:29:48;;;;;;;;;;;3.70;99.90;;;;;;5073661;28;19913;-69
2023/01/31 00:32:14;;;;;;;;;;;3.70;99.90;;;;;;5072417;28;19958;-69
2023/01/31 00:34:39;;;;;;;;;;;3.60;99.90;;;;;;5072446;28;19908;-69
2023/01/31 00:37:05;;;;;;;;;;;3.70;99.90;;;;;;5072527;28;19908;-69
2023/01/31 00:39:30;;;;;;;;;;;3.60;99.90;;;;;;5074462;28;19944;-69
2023/01/31 00:41:56;;;;;;;;;;;3.60;99.90;;;;;;5076973;28;19916;-69
2023/01/31 00:44:21;;;;;;;;;;;3.50;99.90;;;;;;5082552;28;19920;-69
2023/01/31 00:46:46;;;;;;;;;;;3.40;99.90;;;;;;5077915;28;19908;-70
2023/01/31 00:49:12;;;;;;;;;;;3.50;99.90;;;;;;5080980;28;19909;-68
2023/01/31 00:51:37;;;;;;;;;;;3.40;99.90;;;;;;5078593;28;20010;-69
2023/01/31 00:54:03;;;;;;;;;;;3.50;99.90;;;;;;5072160;28;20014;-69
2023/01/31 00:56:28;;;;;;;;;;;3.60;99.90;;;;;;5073498;28;19915;-69
2023/01/31 00:58:54;;;;;;;;;;;3.60;99.90;;;;;;5073510;28;19948;-68
2023/01/31 01:01:21;;;;;;;;;;;3.60;99.90;;;;;;5072290;28;19960;-68
2023/01/31 01:03:47;;;;;;;;;;;3.60;99.90;;;;;;5073326;28;19935;-68
2023/01/31 01:06:13;;;;;;;;;;;3.60;99.90;;;;;;5073346;28;19917;-69
2023/01/31 01:08:39;;;;;;;;;;;3.50;99.90;;;;;;5073226;28;20471;-69
2023/01/31 01:11:08;;;;;;;;;;;3.50;99.90;;;;;;5074879;28;20328;-70
2023/01/31 01:13:34;;;;;;;;;;;3.50;99.90;;;;;;5074134;28;19908;-69
2023/01/31 01:16:07;;;;;;;;;;;3.50;99.90;;;;;;5073973;28;20475;-69
2023/01/31 01:18:34;;;;;;;;;;;3.50;99.90;;;;;;5073378;28;19931;-69
2023/01/31 01:21:07;;;;;;;;;;;3.50;99.90;;;;;;5071796;28;20373;-69
2023/01/31 01:23:32;;;;;;;;;;;3.50;99.90;;;;;;5073047;28;20483;-69
2023/01/31 01:25:57;;;;;;;;;;;3.40;99.90;;;;;;5075268;28;19952;-69
2023/01/31 01:28:23;;;;;;;;;;;3.40;99.90;;;;;;5076618;28;20380;-69
2023/01/31 01:30:48;;;;;;;;;;;3.20;99.90;;;;;;5075293;28;19918;-69
2023/01/31 01:33:14;;;;;;;;;;;3.30;99.90;;;;;;5075388;28;19915;-68
2023/01/31 01:35:39;;;;;;;;;;;3.20;99.90;;;;;;5076330;28;19982;-68
2023/01/31 01:38:05;;;;;;;;;;;3.20;99.90;;;;;;5074808;28;19909;-68
2023/01/31 01:40:34;;;;;;;;;;;3.20;99.90;;;;;;5076829;28;19969;-68
2023/01/31 01:42:59;;;;;;;;;;;3.10;99.90;;;;;;5075609;28;19958;-68
2023/01/31 01:45:24;;;;;;;;;;;3.00;99.90;;;;;;5076281;28;19917;-68
2023/01/31 01:47:55;;;;;;;;;;;3.00;99.90;;;;;;5076124;28;19909;-68
2023/01/31 01:50:23;;;;;;;;;;;2.90;99.90;;;;;;5074761;28;19909;-68
2023/01/31 01:52:55;;;;;;;;;;;2.90;99.90;;;;;;5074650;28;20288;-68
2023/01/31 01:55:26;;;;;;;;;;;3.00;99.90;;;;;;5076430;28;20319;-68
2023/01/31 01:57:55;;;;;;;;;;;3.00;99.90;;;;;;5074886;28;20396;-68
2023/01/31 02:00:22;;;;;;;;;;;3.00;99.90;;;;;;5076261;28;19971;-68
2023/01/31 02:02:49;;;;;;;;;;;3.00;99.90;;;;;;5076095;28;20327;-68
2023/01/31 02:05:16;;;;;;;;;;;2.90;99.90;;;;;;5074505;28;20003;-69
2023/01/31 02:07:42;;;;;;;;;;;2.90;99.90;;;;;;5075788;28;19912;-68
2023/01/31 02:10:21;;;;;;;;;;;2.90;99.90;;;;;;5076178;28;20070;-69
2023/01/31 02:12:47;;;;;;;;;;;2.90;99.90;;;;;;5076004;28;19909;-69
2023/01/31 02:15:12;;;;;;;;;;;2.90;99.90;;;;;;5075729;28;19915;-68
2023/01/31 02:17:38;;;;;;;;;;;2.90;99.90;;;;;;5075740;28;19912;-69
2023/01/31 02:20:03;;;;;;;;;;;2.80;99.90;;;;;;5075587;28;20430;-69
2023/01/31 02:22:37;;;;;;;;;;;2.80;99.90;;;;;;5074333;28;20330;-69
2023/01/31 02:25:13;;;;;;;;;;;2.80;99.90;;;;;;5074548;28;19919;-68
2023/01/31 02:28:00;;;;;;;;;;;2.90;99.90;;;;;;5075940;28;20015;-69
2023/01/31 02:30:44;;;;;;;;;;;2.80;99.90;;;;;;5078094;28;19908;-70
2023/01/31 02:33:10;;;;;;;;;;;2.90;99.90;;;;;;5079509;28;19959;-70
2023/01/31 02:35:52;;;;;;;;;;;2.80;99.90;;;;;;5077727;28;20337;-69
2023/01/31 02:38:22;;;;;;;;;;;2.80;99.90;;;;;;5076299;28;19916;-70
2023/01/31 02:40:53;;;;;;;;;;;2.80;99.90;;;;;;5075436;28;19909;-67
2023/01/31 02:43:31;;;;;;;;;;;2.80;99.90;;;;;;5075305;28;19919;-68
2023/01/31 02:46:02;;;;;;;;;;;2.80;99.90;;;;;;5073968;28;19916;-68
2023/01/31 02:48:34;;;;;;;;;;;2.80;99.90;;;;;;5073868;28;19912;-68
2023/01/31 02:51:05;;;;;;;;;;;2.80;99.90;;;;;;5074939;28;19915;-68
2023/01/31 02:53:31;;;;;;;;;;;2.70;99.90;;;;;;5074700;28;19995;-68
2023/01/31 02:56:16;;;;;;;;;;;2.60;99.90;;;;;;5073742;28;19950;-69
2023/01/31 02:58:45;;;;;;;;;;;2.70;99.90;;;;;;5073519;28;19919;-68
2023/01/31 03:01:13;;;;;;;;;;;2.70;99.90;;;;;;5074989;28;19909;-68
2023/01/31 03:03:38;;;;;;;;;;;2.80;99.90;;;;;;5074723;28;19916;-68
2023/01/31 03:06:07;;;;;;;;;;;2.80;99.90;;;;;;5075482;28;19923;-69
2023/01/31 03:08:32;;;;;;;;;;;2.80;99.90;;;;;;5075064;28;19995;-69
2023/01/31 03:10:59;;;;;;;;;;;2.90;99.90;;;;;;5077431;28;19974;-69
2023/01/31 03:13:28;;;;;;;;;;;2.90;99.90;;;;;;5076521;28;19916;-69
2023/01/31 03:18:56;;;;;;;;;;;3.00;99.90;;;;;;5074545;28;19916;-70
2023/01/31 03:21:29;;;;;;;;;;;3.00;99.90;;;;;;5073062;28;19909;-68
2023/01/31 03:23:55;;;;;;;;;;;3.00;99.90;;;;;;5074034;28;19920;-67
2023/01/31 03:26:21;;;;;;;;;;;3.00;99.90;;;;;;5074235;28;19909;-70
2023/01/31 03:28:53;;;;;;;;;;;3.10;99.90;;;;;;5072836;28;19908;-69
2023/01/31 03:31:21;;;;;;;;;;;3.20;99.90;;;;;;5074565;28;19995;-69
2023/01/31 03:33:50;;;;;;;;;;;3.10;99.90;;;;;;5074220;28;20072;-69
2023/01/31 03:36:30;;;;;;;;;;;3.20;99.90;;;;;;5074023;28;20335;-70
2023/01/31 03:39:14;;;;;;;;;;;3.20;99.90;;;;;;5073876;28;19935;-70
2023/01/31 03:42:01;;;;;;;;;;;3.20;99.90;;;;;;5074029;28;19974;-68
2023/01/31 03:44:36;;;;;;;;;;;3.20;99.90;;;;;;5060477;28;19919;-69
2023/01/31 03:47:08;;;;;;;;;;;3.20;99.90;;;;;;5073411;28;19915;-68
2023/01/31 03:49:33;;;;;;;;;;;3.30;99.90;;;;;;5072903;28;19908;-68
2023/01/31 03:52:03;;;;;;;;;;;3.20;99.90;;;;;;5073641;28;19915;-69
2023/01/31 03:54:30;;;;;;;;;;;3.20;99.90;;;;;;5074048;28;20302;-69
2023/01/31 03:56:59;;;;;;;;;;;3.20;99.90;;;;;;5073783;28;19940;-70
2023/01/31 03:59:27;;;;;;;;;;;3.10;99.90;;;;;;5073137;28;20022;-69
2023/01/31 04:01:54;;;;;;;;;;;3.10;99.90;;;;;;5072448;28;19910;-69
2023/01/31 04:04:21;;;;;;;;;;;3.10;99.90;;;;;;5073785;28;19912;-69
2023/01/31 04:06:47;;;;;;;;;;;3.10;99.90;;;;;;5072434;28;19971;-69
2023/01/31 04:09:13;;;;;;;;;;;3.00;99.90;;;;;;5072065;28;19912;-69
2023/01/31 04:11:39;;;;;;;;;;;2.90;99.90;;;;;;5073849;28;20018;-69
2023/01/31 04:14:05;;;;;;;;;;;2.90;99.90;;;;;;5073700;28;20369;-69
2023/01/31 04:16:30;;;;;;;;;;;2.90;99.90;;;;;;5073620;28;19975;-69
2023/01/31 04:18:55;;;;;;;;;;;2.90;99.90;;;;;;5073753;28;19967;-69
2023/01/31 04:21:21;;;;;;;;;;;2.80;99.90;;;;;;5072499;28;19908;-69
2023/01/31 04:23:47;;;;;;;;;;;2.60;99.90;;;;;;5073216;28;19912;-69
2023/01/31 04:26:12;;;;;;;;;;;2.70;99.90;;;;;;5073569;28;19909;-68
2023/01/31 04:28:38;;;;;;;;;;;2.60;99.90;;;;;;5073500;28;20277;-68
2023/01/31 04:31:04;;;;;;;;;;;2.50;99.90;;;;;;5072264;28;19999;-68
2023/01/31 04:33:29;;;;;;;;;;;2.40;99.90;;;;;;5073931;28;19951;-69
2023/01/31 04:35:55;;;;;;;;;;;2.30;99.90;;;;;;5073303;28;20267;-68
2023/01/31 04:38:20;;;;;;;;;;;2.20;99.90;;;;;;5073098;28;19915;-69
2023/01/31 04:40:46;;;;;;;;;;;2.30;99.90;;;;;;5073230;28;19952;-68
2023/01/31 04:43:11;;;;;;;;;;;2.30;99.90;;;;;;5073236;28;19908;-70
2023/01/31 04:45:37;;;;;;;;;;;2.30;99.90;;;;;;5073415;28;20329;-68
2023/01/31 04:48:02;;;;;;;;;;;2.20;99.90;;;;;;5071993;28;19908;-69
2023/01/31 04:50:28;;;;;;;;;;;2.30;99.90;;;;;;5073478;28;19912;-69
2023/01/31 04:52:54;;;;;;;;;;;2.40;99.90;;;;;;5071688;28;19912;-68
2023/01/31 04:55:20;;;;;;;;;;;2.30;99.90;;;;;;5073195;28;19909;-68
2023/01/31 04:57:45;;;;;;;;;;;2.30;99.90;;;;;;5071940;28;19909;-68
2023/01/31 05:00:11;;;;;;;;;;;2.20;99.90;;;;;;5074649;28;19999;-68
2023/01/31 05:02:37;;;;;;;;;;;2.20;99.90;;;;;;5075887;28;19962;-69
2023/01/31 05:05:03;;;;;;;;;;;2.20;99.90;;;;;;5076934;28;19912;-69
2023/01/31 05:07:28;;;;;;;;;;;2.20;99.90;;;;;;5076521;28;19928;-69
2023/01/31 05:09:54;;;;;;;;;;;2.20;99.90;;;;;;5076800;28;19909;-69
2023/01/31 05:12:19;;;;;;;;;;;2.20;99.90;;;;;;5077054;28;19908;-69
2023/01/31 05:14:45;;;;;;;;;;;2.20;99.90;;;;;;5075572;28;20361;-69
2023/01/31 05:17:10;;;;;;;;;;;2.30;99.90;;;;;;5075483;28;20066;-69
2023/01/31 05:19:36;;;;;;;;;;;2.20;99.90;;;;;;5077611;28;19931;-70
2023/01/31 05:22:01;;;;;;;;;;;2.20;99.90;;;;;;5077543;28;19909;-70
2023/01/31 05:24:28;;;;;;;;;;;2.20;99.90;;;;;;5077202;28;19973;-68
2023/01/31 05:26:57;;;;;;;;;;;2.10;99.90;;;;;;5080939;28;19908;-69
2023/01/31 05:29:30;;;;;;;;;;;2.00;99.90;;;;;;5076487;28;19983;-69
2023/01/31 05:31:56;;;;;;;;;;;2.00;99.90;;;;;;5078777;28;19908;-69
2023/01/31 05:34:24;;;;;;;;;;;2.00;99.90;;;;;;5080026;28;19912;-68
2023/01/31 05:36:49;;;;;;;;;;;2.00;99.90;;;;;;5078025;28;19942;-69
2023/01/31 05:39:15;;;;;;;;;;;2.00;99.90;;;;;;5078769;28;19954;-70
2023/01/31 05:41:41;;;;;;;;;;;2.00;99.90;;;;;;5075471;28;19952;-69
2023/01/31 05:44:06;;;;;;;;;;;1.90;99.90;;;;;;5076736;28;19956;-68
2023/01/31 05:46:31;;;;;;;;;;;1.90;99.90;;;;;;5076539;28;19995;-68
2023/01/31 05:48:57;;;;;;;;;;;1.90;99.90;;;;;;5074856;28;20335;-69
2023/01/31 05:51:22;;;;;;;;;;;2.00;99.90;;;;;;5075973;28;19908;-69
2023/01/31 05:53:48;;;;;;;;;;;2.00;99.90;;;;;;5076230;28;20280;-69
2023/01/31 05:56:15;;;;;;;;;;;2.00;99.90;;;;;;5071975;28;19919;-69
2023/01/31 05:58:41;;;;;;;;;;;2.10;99.90;;;;;;5085884;28;19909;-69
2023/01/31 06:01:06;;;;;;;;;;;2.20;99.90;;;;;;5072582;28;19909;-68
2023/01/31 06:03:32;;;;;;;;;;;2.30;99.90;;;;;;5073197;28;19915;-69
2023/01/31 06:05:57;;;;;;;;;;;2.40;99.90;;;;;;5075424;28;19927;-70
2023/01/31 06:08:23;;;;;;;;;;;2.30;99.90;;;;;;5073128;28;19994;-69
2023/01/31 06:10:48;;;;;;;;;;;2.40;99.90;;;;;;5073351;28;20439;-68
2023/01/31 06:13:14;;;;;;;;;;;2.50;99.90;;;;;;5072340;28;19909;-69
2023/01/31 06:16:10;;;;;;;;;;;2.60;99.90;;;;;;5074697;28;19944;-69
2023/01/31 06:18:36;;;;;;;;;;;2.60;99.90;;;;;;5057535;28;20281;-68
2023/01/31 06:21:01;;;;;;;;;;;2.60;99.90;;;;;;5054352;28;20000;-68
2023/01/31 06:23:27;;;;;;;;;;;2.60;99.90;;;;;;5067112;28;19908;-69
2023/01/31 06:25:54;;;;;;;;;;;2.60;99.90;;;;;;5074569;28;19958;-69
2023/01/31 06:28:19;;;;;;;;;;;2.60;99.90;;;;;;5074947;28;19947;-69
2023/01/31 06:30:45;;;;;;;;;;;2.70;99.90;;;;;;5075581;28;19971;-69
2023/01/31 06:33:11;;;;;;;;;;;2.70;99.90;;;;;;5075916;28;20365;-69
2023/01/31 06:35:37;;;;;;;;;;;2.70;99.90;;;;;;5066534;28;19974;-68
2023/01/31 06:38:03;;;;;;;;;;;2.70;99.90;;;;;;5065179;28;19956;-67
2023/01/31 06:40:29;;;;;;;;;;;2.80;99.90;;;;;;5071708;28;20393;-69
2023/01/31 06:42:55;;;;;;;;;;;2.80;99.90;;;;;;5061194;28;19909;-68
2023/01/31 06:45:21;;;;;;;;;;;2.90;99.90;;;;;;5070230;28;20366;-68
2023/01/31 06:47:46;;;;;;;;;;;2.90;99.90;;;;;;5068588;28;19909;-67
2023/01/31 06:50:12;;;;;;;;;;;3.00;99.90;;;;;;5070470;28;19958;-68
2023/01/31 06:52:38;;;;;;;;;;;3.00;99.90;;;;;;5070578;28;19948;-68
2023/01/31 06:55:03;;;;;;;;;;;3.00;99.90;;;;;;5073412;28;19916;-68
2023/01/31 06:57:29;;;;;;;;;;;3.10;99.90;;;;;;5074921;28;19909;-67
2023/01/31 06:59:54;;;;;;;;;;;3.10;99.90;;;;;;5073334;28;19909;-68
2023/01/31 07:02:20;;;;;;;;;;;3.00;99.90;;;;;;5074506;28;19916;-69
2023/01/31 07:04:45;;;;;;;;;;;3.00;99.90;;;;;;5074476;28;20010;-69
2023/01/31 07:07:10;;;;;;;;;;;3.00;99.90;;;;;;5074493;28;19920;-69
2023/01/31 07:09:36;;;;;;;;;;;3.10;99.90;;;;;;5074488;28;20361;-70
2023/01/31 07:12:02;;;;;;;;;;;3.10;99.90;;;;;;5074304;28;20276;-69
2023/01/31 07:14:27;;;;;;;;;;;3.10;99.90;;;;;;5074735;28;19908;-67
2023/01/31 07:16:52;;;;;;;;;;;3.10;99.90;;;;;;5074489;28;19951;-67
2023/01/31 07:19:18;;;;;;;;;;;3.10;99.90;;;;;;5074354;28;19957;-68
2023/01/31 07:21:44;;;;;;;;;;;3.10;99.90;;;;;;5073549;28;19999;-68
2023/01/31 07:24:09;;;;;;;;;;;2.90;99.90;;;;;;5074066;28;19919;-68
2023/01/31 07:26:35;;;;;;;;;;;3.00;99.90;;;;;;5053656;28;20250;-67
2023/01/31 07:29:00;;;;;;;;;;;3.10;99.90;;;;;;5061177;28;19908;-69
2023/01/31 07:31:26;;;;;;;;;;;3.10;99.90;;;;;;5068692;28;19958;-68
2023/01/31 07:33:51;;;;;;;;;;;3.10;99.90;;;;;;5057573;28;19909;-68
2023/01/31 07:36:21;;;;;;;;;;;3.10;99.90;;;;;;5058789;28;19956;-68
2023/01/31 07:38:47;;;;;;;;;;;3.10;99.90;;;;;;5075719;28;20369;-68
2023/01/31 07:41:12;;;;;;;;;;;3.00;99.90;;;;;;5077577;28;20004;-70
2023/01/31 07:43:38;;;;;;;;;;;3.00;99.90;;;;;;5077473;28;19944;-68
2023/01/31 07:46:10;;;;;;;;;;;2.90;99.90;;;;;;5077975;28;19909;-68
2023/01/31 07:48:36;;;;;;;;;;;2.90;99.90;;;;;;5074008;28;19916;-69
2023/01/31 07:51:01;;;;;;;;;;;2.80;99.90;;;;;;5057956;28;19909;-68
2023/01/31 07:53:28;;;;;;;;;;;2.80;99.90;;;;;;5077986;28;19908;-69
2023/01/31 07:55:54;;;;;;;;;;;2.80;99.90;;;;;;5077278;28;20000;-69
2023/01/31 07:58:19;;;;;;;;;;;2.80;99.90;;;;;;5077805;28;19966;-68
2023/01/31 08:03:32;;;;;;;;;;;2.70;99.90;;;;;;5072419;28;19923;-69
2023/01/31 08:06:09;;;;;;;;;;;2.70;99.90;;;;;;5060891;28;20106;-68
2023/01/31 08:08:37;;;;;;;;;;;2.70;99.90;;;;;;5064812;28;19909;-68
2023/01/31 08:11:06;;;;;;;;;;;2.70;99.90;;;;;;5066424;28;19916;-68
2023/01/31 08:13:34;;;;;;;;;;;2.80;99.90;;;;;;5056097;28;20376;-68
2023/01/31 08:15:59;;;;;;;;;;;2.80;99.90;;;;;;5057427;28;19919;-68
2023/01/31 08:18:27;;;;;;;;;;;3.00;99.90;;;;;;5070996;28;19983;-67
2023/01/31 08:20:52;;;;;;;;;;;3.00;99.90;;;;;;5066050;28;19908;-68
2023/01/31 08:23:18;;;;;;;;;;;3.10;99.90;;;;;;5069217;28;20047;-67
2023/01/31 08:25:43;;;;;;;;;;;3.40;99.90;;;;;;5066883;28;20369;-68
2023/01/31 08:28:09;;;;;;;;;;;3.60;99.90;;;;;;5055181;28;19916;-69
2023/01/31 08:30:38;;;;;;;;;;;3.60;99.90;;;;;;5054796;28;19909;-66
2023/01/31 08:33:03;;;;;;;;;;;3.50;99.90;;;;;;5054391;28;19917;-71
2023/01/31 08:35:29;;;;;;;;;;;3.50;99.90;;;;;;5059412;28;19932;-71
2023/01/31 08:37:54;;;;;;;;;;;3.40;99.90;;;;;;5058870;28;19909;-67
2023/01/31 08:40:20;;;;;;;;;;;3.40;99.90;;;;;;5075798;28;20008;-67
2023/01/31 08:42:52;;;;;;;;;;;3.40;99.90;;;;;;5078532;28;19936;-67
2023/01/31 08:45:17;;;;;;;;;;;3.40;99.90;;;;;;5080768;28;19940;-67
2023/01/31 08:47:43;;;;;;;;;;;3.40;99.90;;;;;;5079411;28;19908;-66
2023/01/31 08:50:09;;;;;;;;;;;3.50;99.90;;;;;;5079091;28;19913;-66
2023/01/31 08:52:34;;;;;;;;;;;3.50;99.90;;;;;;5077143;28;19920;-67
2023/01/31 08:55:00;;;;;;;;;;;3.50;99.90;;;;;;5076191;28;19909;-68
2023/01/31 08:57:25;;;;;;;;;;;3.50;99.90;;;;;;5080799;28;19913;-68
2023/01/31 08:59:51;;;;;;;;;;;3.60;99.90;;;;;;5080124;28;19909;-68
2023/01/31 09:02:16;;;;;;;;;;;3.60;99.90;;;;;;5079686;28;20369;-69
2023/01/31 09:04:42;;;;;;;;;;;3.80;99.90;;;;;;5080206;28;19958;-67
2023/01/31 09:07:07;;;;;;;;;;;4.00;99.90;;;;;;5073243;28;19916;-68
2023/01/31 09:09:33;;;;;;;;;;;4.10;99.90;;;;;;5067820;28;20372;-68
2023/01/31 09:11:58;;;;;;;;;;;4.20;99.90;;;;;;5073257;28;20409;-68
2023/01/31 09:14:23;;;;;;;;;;;4.20;99.90;;;;;;5074535;28;19916;-67
2023/01/31 09:16:49;;;;;;;;;;;4.30;99.90;;;;;;5076449;28;19912;-68
2023/01/31 09:19:14;;;;;;;;;;;4.20;99.90;;;;;;5057028;28;19920;-69
2023/01/31 09:21:40;;;;;;;;;;;4.20;99.90;;;;;;5058125;28;19912;-69
2023/01/31 09:24:05;;;;;;;;;;;4.20;99.90;;;;;;5073277;28;19920;-69
2023/01/31 09:26:31;;;;;;;;;;;4.20;99.90;;;;;;5057610;28;19909;-69
2023/01/31 09:28:57;;;;;;;;;;;4.20;99.90;;;;;;5058928;28;20307;-69
2023/01/31 09:31:23;;;;;;;;;;;4.20;99.90;;;;;;5076340;28;19958;-70
2023/01/31 09:33:49;;;;;;;;;;;4.10;99.90;;;;;;5077426;28;19916;-70
2023/01/31 09:36:19;;;;;;;;;;;4.10;99.90;;;;;;5077577;28;20011;-69
2023/01/31 09:38:44;;;;;;;;;;;4.20;99.90;;;;;;5074859;28;19908;-69
2023/01/31 09:41:22;;;;;;;;;;;4.30;99.90;;;;;;5075718;28;20315;-69
2023/01/31 09:43:50;;;;;;;;;;;4.20;99.90;;;;;;5068983;28;19986;-69
2023/01/31 09:46:18;;;;;;;;;;;4.10;99.90;;;;;;5065193;28;19909;-70
2023/01/31 09:48:46;;;;;;;;;;;4.10;99.90;;;;;;5086370;28;19908;-70
2023/01/31 09:51:13;;;;;;;;;;;4.10;99.90;;;;;;5076628;28;19954;-69
2023/01/31 09:53:40;;;;;;;;;;;4.50;99.90;;;;;;5076423;28;19912;-69
2023/01/31 09:56:08;;;;;;;;;;;4.70;99.90;;;;;;5074133;28;19915;-69
2023/01/31 09:58:33;;;;;;;;;;;4.80;99.90;;;;;;5075472;28;19971;-69
2023/01/31 10:01:08;;;;;;;;;;;4.90;99.90;;;;;;5069070;28;19909;-68
2023/01/31 10:03:47;;;;;;;;;;;5.00;99.90;;;;;;5073165;28;19908;-69
2023/01/31 10:06:15;;;;;;;;;;;5.10;99.90;;;;;;5096507;28;20435;-68
2023/01/31 10:09:00;;;;;;;;;;;5.20;99.90;;;;;;5093668;28;19942;-68
2023/01/31 10:11:42;;;;;;;;;;;5.20;99.90;;;;;;5076869;28;20057;-68
2023/01/31 10:14:21;;;;;;;;;;;5.20;99.90;;;;;;5076661;28;19999;-69
2023/01/31 10:16:59;;;;;;;;;;;5.00;99.90;;;;;;5075385;28;19909;-68
2023/01/31 10:19:27;;;;;;;;;;;4.60;99.90;;;;;;5077173;28;19978;-68
2023/01/31 10:21:56;;;;;;;;;;;4.60;99.90;;;;;;5074743;28;20365;-68
2023/01/31 10:24:27;;;;;;;;;;;4.70;99.90;;;;;;5075642;28;19916;-68
2023/01/31 10:26:54;;;;;;;;;;;4.90;99.90;;;;;;5075536;28;19916;-70
2023/01/31 10:29:35;;;;;;;;;;;5.10;99.90;;;;;;5075160;28;19909;-68
2023/01/31 10:32:05;;;;;;;;;;;5.30;99.90;;;;;;5084257;28;19916;-68
2023/01/31 10:34:54;;;;;;;;;;;5.20;99.90;;;;;;5078053;28;19914;-70
2023/01/31 10:37:28;;;;;;;;;;;5.10;99.90;;;;;;5069444;28;20387;-69
2023/01/31 10:40:05;;;;;;;;;;;5.00;99.90;;;;;;5078574;28;19980;-70
2023/01/31 10:42:31;;;;;;;;;;;4.90;99.90;;;;;;5077754;28;20383;-69
2023/01/31 10:45:18;;;;;;;;;;;4.80;99.90;;;;;;5068441;28;19978;-72
2023/01/31 10:47:50;;;;;;;;;;;4.70;99.90;;;;;;5055316;28;19909;-67
2023/01/31 10:50:24;;;;;;;;;;;4.70;99.90;;;;;;5054670;28;20083;-68
2023/01/31 10:53:09;;;;;;;;;;;4.90;99.90;;;;;;5055282;28;20384;-68
2023/01/31 10:55:53;;;;;;;;;;;5.20;99.90;;;;;;5066073;28;20339;-67
2023/01/31 10:58:21;;;;;;;;;;;5.50;99.90;;;;;;5072664;28;19919;-68
2023/01/31 11:00:47;;;;;;;;;;;5.70;99.90;;;;;;5075272;28;20222;-66
2023/01/31 11:03:13;;;;;;;;;;;5.90;99.90;;;;;;5074399;28;19917;-67
2023/01/31 11:06:00;;;;;;;;;;;6.00;99.90;;;;;;5064454;28;19924;-69
2023/01/31 11:08:29;;;;;;;;;;;5.80;99.90;;;;;;5070363;28;19908;-68
2023/01/31 11:11:03;;;;;;;;;;;5.70;99.90;;;;;;5055513;28;19909;-69
2023/01/31 11:13:29;;;;;;;;;;;5.60;99.90;;;;;;5055844;28;19913;-69
2023/01/31 11:15:54;;;;;;;;;;;5.70;99.90;;;;;;5055550;28;20467;-67
2023/01/31 11:18:25;;;;;;;;;;;5.70;99.90;;;;;;5054508;28;20276;-67
2023/01/31 11:20:51;;;;;;;;;;;5.70;99.90;;;;;;5072600;28;20345;-65
2023/01/31 11:23:21;;;;;;;;;;;5.70;99.90;;;;;;5072884;28;19915;-67
2023/01/31 11:25:50;;;;;;;;;;;5.80;99.90;;;;;;5073787;28;19913;-71
2023/01/31 11:28:20;;;;;;;;;;;5.70;99.90;;;;;;5086548;28;20284;-66
2023/01/31 11:30:47;;;;;;;;;;;5.60;99.90;;;;;;5052729;28;19931;-68
2023/01/31 11:33:31;;;;;;;;;;;5.40;99.90;;;;;;5054036;28;19919;-67
2023/01/31 11:35:57;;;;;;;;;;;5.30;99.90;;;;;;5054294;28;19965;-68
2023/01/31 11:38:22;;;;;;;;;;;5.30;99.90;;;;;;5074212;28;19949;-68
2023/01/31 11:40:48;;;;;;;;;;;5.30;99.90;;;;;;5073691;28;19969;-69
2023/01/31 11:43:22;;;;;;;;;;;5.40;99.90;;;;;;5073756;28;19908;-68
2023/01/31 11:45:58;;;;;;;;;;;5.40;99.90;;;;;;5089227;28;19917;-69
2023/01/31 11:48:27;;;;;;;;;;;5.50;99.90;;;;;;5073403;28;19995;-70
2023/01/31 11:50:54;;;;;;;;;;;5.50;99.90;;;;;;5073585;28;20278;-68
2023/01/31 11:53:21;;;;;;;;;;;5.60;99.90;;;;;;5073400;28;19958;-68
2023/01/31 11:55:47;;;;;;;;;;;5.50;99.90;;;;;;5073584;28;19908;-68
2023/01/31 11:58:23;;;;;;;;;;;5.60;99.90;;;;;;5074080;28;19913;-70
2023/01/31 12:00:59;;;;;;;;;;;5.60;99.90;;;;;;5067017;28;19913;-68
2023/01/31 12:03:25;;;;;;;;;;;5.40;99.90;;;;;;5055393;28;20007;-68
2023/01/31 12:05:58;;;;;;;;;;;5.30;99.90;;;;;;5053089;28;20368;-68
2023/01/31 12:08:26;;;;;;;;;;;5.30;99.90;;;;;;5053771;28;19932;-69
2023/01/31 12:10:52;;;;;;;;;;;5.30;99.90;;;;;;5052695;28;20383;-68
2023/01/31 12:13:18;;;;;;;;;;;5.40;99.90;;;;;;5053695;28;19915;-69
2023/01/31 12:15:54;;;;;;;;;;;5.40;99.90;;;;;;5053605;28;20400;-70
2023/01/31 12:18:39;;;;;;;;;;;5.50;99.90;;;;;;5053885;28;19912;-69
2023/01/31 12:21:13;;;;;;;;;;;5.60;99.90;;;;;;5053688;28;19916;-67
2023/01/31 12:24:06;;;;;;;;;;;5.60;99.90;;;;;;5053817;28;19913;-68
2023/01/31 12:26:35;;;;;;;;;;;5.60;99.90;;;;;;5053523;28;19909;-70
2023/01/31 12:29:12;;;;;;;;;;;5.60;99.90;;;;;;5066028;28;19908;-68
2023/01/31 12:31:56;;;;;;;;;;;5.60;99.90;;;;;;5073583;28;20006;-68
2023/01/31 12:34:31;;;;;;;;;;;5.60;99.90;;;;;;5077205;28;20280;-73
2023/01/31 12:37:05;;;;;;;;;;;5.60;99.90;;;;;;5055864;28;19909;-70
2023/01/31 12:39:33;;;;;;;;;;;5.50;99.90;;;;;;5073322;28;19909;-68
2023/01/31 12:42:02;;;;;;;;;;;5.50;99.90;;;;;;5068841;28;19921;-68
2023/01/31 12:44:27;;;;;;;;;;;5.50;99.90;;;;;;5072980;28;19912;-69
2023/01/31 12:47:12;;;;;;;;;;;5.50;99.90;;;;;;5064184;28;19908;-68
2023/01/31 12:49:52;;;;;;;;;;;5.50;99.90;;;;;;5074852;28;19978;-68
2023/01/31 12:52:23;;;;;;;;;;;5.50;99.90;;;;;;5082152;28;19915;-68
2023/01/31 12:55:00;;;;;;;;;;;5.40;99.90;;;;;;5056069;28;20377;-68
2023/01/31 12:57:29;;;;;;;;;;;5.40;99.90;;;;;;5073085;28;19916;-67
2023/01/31 13:00:17;;;;;;;;;;;5.40;99.90;;;;;;5064218;28;19912;-68
2023/01/31 13:03:02;;;;;;;;;;;5.40;99.90;;;;;;5068270;28;19916;-70
2023/01/31 13:05:29;;;;;;;;;;;5.50;99.90;;;;;;5058201;28;19917;-68
2023/01/31 13:08:10;;;;;;;;;;;5.50;99.90;;;;;;5065713;28;20295;-66
2023/01/31 13:10:37;;;;;;;;;;;5.50;99.90;;;;;;5074538;28;19995;-68
2023/01/31 13:13:05;;;;;;;;;;;5.60;99.90;;;;;;5058232;28;19909;-67
2023/01/31 13:15:43;;;;;;;;;;;5.60;99.90;;;;;;5055759;28;20267;-67
2023/01/31 13:18:10;;;;;;;;;;;5.70;99.90;;;;;;5055051;28;19974;-68
2023/01/31 13:20:55;;;;;;;;;;;5.60;99.90;;;;;;5056817;28;19909;-67
2023/01/31 13:23:30;;;;;;;;;;;5.70;99.90;;;;;;5060089;28;19916;-71
2023/01/31 13:26:17;;;;;;;;;;;5.80;99.90;;;;;;5067660;28;19912;-67
2023/01/31 13:28:47;;;;;;;;;;;5.80;99.90;;;;;;5077208;28;19909;-67
2023/01/31 13:31:24;;;;;;;;;;;5.70;99.90;;;;;;5076757;28;19908;-69
2023/01/31 13:33:52;;;;;;;;;;;5.70;99.90;;;;;;5074708;28;20361;-70
2023/01/31 13:36:24;;;;;;;;;;;5.80;99.90;;;;;;5085279;28;19909;-71
2023/01/31 13:38:51;;;;;;;;;;;5.80;99.90;;;;;;5094881;28;19961;-70
2023/01/31 13:41:19;;;;;;;;;;;5.80;99.90;;;;;;5083340;28;19909;-68
2023/01/31 13:43:45;;;;;;;;;;;5.80;99.90;;;;;;5069311;28;19915;-67
2023/01/31 13:46:13;;;;;;;;;;;5.80;99.90;;;;;;5074832;28;21178;-68
2023/01/31 13:48:44;;;;;;;;;;;5.80;99.90;;;;;;5076434;28;19908;-70
2023/01/31 13:51:17;;;;;;;;;;;5.80;99.90;;;;;;5078184;28;19908;-69
2023/01/31 13:53:56;;;;;;;;;;;5.80;99.90;;;;;;5077342;28;19954;-71
2023/01/31 13:56:27;;;;;;;;;;;5.80;99.90;;;;;;5071096;28;19916;-68
2023/01/31 13:58:53;;;;;;;;;;;5.90;99.90;;;;;;5067389;28;19920;-70
2023/01/31 14:01:20;;;;;;;;;;;5.70;99.90;;;;;;5075004;28;19973;-72
2023/01/31 14:04:04;;;;;;;;;;;5.70;99.90;;;;;;5074418;28;20361;-68
2023/01/31 14:06:53;;;;;;;;;;;5.80;99.90;;;;;;5073411;28;19916;-69
2023/01/31 14:09:23;;;;;;;;;;;5.80;99.90;;;;;;5073881;28;19908;-68
2023/01/31 14:11:49;;;;;;;;;;;5.80;99.90;;;;;;5056152;28;19909;-68
2023/01/31 14:14:17;;;;;;;;;;;5.80;99.90;;;;;;5059615;28;20269;-68
2023/01/31 14:16:44;;;;;;;;;;;5.90;99.90;;;;;;5074752;28;19908;-68
2023/01/31 14:19:22;;;;;;;;;;;6.00;99.90;;;;;;5076087;28;19969;-69
2023/01/31 14:21:51;;;;;;;;;;;6.00;99.90;;;;;;5075294;28;19999;-67
2023/01/31 14:24:18;;;;;;;;;;;6.00;99.90;;;;;;5075487;28;20376;-69
2023/01/31 14:26:43;;;;;;;;;;;6.00;99.90;;;;;;5075275;28;19909;-68
2023/01/31 14:29:13;;;;;;;;;;;6.10;99.90;;;;;;5075372;28;20198;-68
2023/01/31 14:31:39;;;;;;;;;;;6.10;99.90;;;;;;5075594;28;20401;-68
2023/01/31 14:34:05;;;;;;;;;;;6.10;99.90;;;;;;5075653;28;19909;-68
2023/01/31 14:36:42;;;;;;;;;;;6.10;99.90;;;;;;5074007;28;19914;-69
2023/01/31 14:39:26;;;;;;;;;;;6.10;99.90;;;;;;5075563;28;19962;-70
2023/01/31 14:42:14;;;;;;;;;;;6.10;99.90;;;;;;5075878;28;20384;-69
2023/01/31 14:45:06;;;;;;;;;;;6.10;99.90;;;;;;5074192;28;19912;-69
2023/01/31 14:47:39;;;;;;;;;;;6.10;99.90;;;;;;5072239;28;19958;-70